Time;durP1;ratioP1;P1;durP2;ratioP2;P2;SDS_P1;SDS_P2;PMS_P1;PMS_P2;Temp;Humidity;BMP_temperature;BMP_pressure;BME280_temperature;BME280_humidity;BME280_pressure;Samples;Min_cycle;Max_cycle;Signal;HPM_P1;HPM_P2
2023/08/17 00:01:39;;;;;;;8.18;2.58;;;18.10;99.90;;;;;;6159578;23;20135;-86
2023/08/17 00:04:05;;;;;;;11.32;2.92;;;18.10;99.90;;;;;;6159420;23;20040;-86
2023/08/17 00:06:31;;;;;;;9.15;2.17;;;18.20;99.90;;;;;;6159437;23;20408;-86
2023/08/17 00:08:56;;;;;;;9.95;2.70;;;18.00;99.90;;;;;;6159247;23;20016;-86
2023/08/17 00:11:22;;;;;;;7.55;2.88;;;18.00;99.90;;;;;;6159813;23;20083;-86
2023/08/17 00:13:48;;;;;;;9.13;3.00;;;18.10;99.90;;;;;;6134769;23;20017;-86
2023/08/17 00:16:13;;;;;;;9.55;2.67;;;18.10;99.90;;;;;;6134973;23;20411;-86
2023/08/17 00:18:39;;;;;;;8.70;3.33;;;18.00;99.90;;;;;;6134792;23;20020;-87
2023/08/17 00:21:04;;;;;;;9.13;2.63;;;18.00;99.90;;;;;;6159466;23;20387;-86
2023/08/17 00:23:30;;;;;;;8.27;2.80;;;18.00;99.90;;;;;;6159260;23;20020;-87
2023/08/17 00:25:56;;;;;;;8.90;3.20;;;17.90;99.90;;;;;;6158663;23;20009;-87
2023/08/17 00:28:21;;;;;;;8.93;2.90;;;17.90;99.90;;;;;;6158645;23;20009;-86
2023/08/17 00:30:47;;;;;;;9.38;3.10;;;17.90;99.90;;;;;;6135017;23;20058;-86
2023/08/17 00:33:12;;;;;;;7.75;3.00;;;17.90;99.90;;;;;;6159524;23;20451;-87
2023/08/17 00:35:38;;;;;;;8.70;2.72;;;17.90;99.90;;;;;;6158966;23;20009;-86
2023/08/17 00:38:03;;;;;;;9.63;3.47;;;17.90;99.90;;;;;;6159098;23;20068;-86
2023/08/17 00:40:29;;;;;;;9.52;2.70;;;17.80;99.90;;;;;;6159437;23;20005;-86
2023/08/17 00:42:55;;;;;;;10.40;2.97;;;17.80;99.90;;;;;;6134768;23;20013;-86
2023/08/17 00:45:23;;;;;;;11.45;2.72;;;17.80;99.90;;;;;;6159705;23;20005;-86
2023/08/17 00:47:49;;;;;;;8.18;2.63;;;17.80;99.90;;;;;;6159350;23;20036;-86
2023/08/17 00:50:15;;;;;;;7.85;2.90;;;17.80;99.90;;;;;;6134547;23;20332;-86
2023/08/17 00:52:42;;;;;;;8.48;2.80;;;17.80;99.90;;;;;;6158991;23;20088;-86
2023/08/17 00:55:09;;;;;;;6.18;2.25;;;17.80;99.90;;;;;;6158795;23;20028;-86
2023/08/17 00:57:35;;;;;;;8.80;3.25;;;17.70;99.90;;;;;;6158860;23;20060;-85
2023/08/17 01:00:02;;;;;;;10.70;3.25;;;17.70;99.90;;;;;;6134304;23;20009;-86
2023/08/17 01:02:28;;;;;;;7.35;2.50;;;17.80;99.90;;;;;;6159032;23;20021;-86
2023/08/17 01:04:54;;;;;;;7.82;2.53;;;17.80;99.90;;;;;;6133974;23;20016;-86
2023/08/17 01:07:19;;;;;;;7.40;2.17;;;17.80;99.90;;;;;;6158970;23;20009;-86
2023/08/17 01:09:45;;;;;;;9.55;2.78;;;17.70;99.90;;;;;;6133813;23;20016;-86
2023/08/17 01:12:30;;;;;;;10.60;3.10;;;17.70;99.90;;;;;;6159242;23;20112;-86
2023/08/17 01:15:09;;;;;;;8.65;3.20;;;17.70;99.90;;;;;;6134450;23;20019;-87
2023/08/17 01:17:46;;;;;;;8.93;2.67;;;17.70;99.90;;;;;;6158684;23;20049;-86
2023/08/17 01:20:14;;;;;;;8.32;2.65;;;17.70;99.90;;;;;;6134448;23;20012;-87
2023/08/17 01:22:46;;;;;;;10.68;2.60;;;17.70;99.90;;;;;;6158746;23;20028;-86
2023/08/17 01:25:11;;;;;;;10.23;2.72;;;17.70;99.90;;;;;;6134311;23;20059;-86
2023/08/17 01:27:41;;;;;;;9.30;3.10;;;17.70;99.90;;;;;;6158604;23;20092;-86
2023/08/17 01:30:09;;;;;;;6.20;1.70;;;17.70;99.90;;;;;;6158516;23;20005;-87
2023/08/17 01:32:50;;;;;;;9.00;2.50;;;17.70;99.90;;;;;;6159095;23;20451;-86
2023/08/17 01:35:30;;;;;;;9.05;2.88;;;17.70;99.90;;;;;;6158829;23;20293;-87
2023/08/17 01:38:00;;;;;;;9.15;2.90;;;17.70;99.90;;;;;;6158500;23;20020;-86
2023/08/17 01:40:29;;;;;;;8.27;2.65;;;17.70;99.90;;;;;;6158803;23;20622;-86
2023/08/17 01:42:55;;;;;;;8.45;2.15;;;17.70;99.90;;;;;;6133964;23;20040;-86
2023/08/17 01:45:21;;;;;;;9.82;2.72;;;17.60;99.90;;;;;;6134115;23;20021;-86
2023/08/17 01:47:46;;;;;;;8.25;2.35;;;17.60;99.90;;;;;;6133208;23;20014;-86
2023/08/17 01:50:12;;;;;;;6.72;2.30;;;17.60;99.90;;;;;;6158501;23;20009;-86
2023/08/17 01:52:38;;;;;;;6.53;2.40;;;17.60;99.90;;;;;;6158752;23;20092;-86
2023/08/17 01:55:04;;;;;;;8.57;2.50;;;17.60;99.90;;;;;;6158439;23;20336;-86
2023/08/17 01:57:30;;;;;;;6.53;2.00;;;17.60;99.90;;;;;;6158189;23;20057;-86
2023/08/17 01:59:55;;;;;;;8.73;2.53;;;17.60;99.90;;;;;;6158427;23;20017;-86
2023/08/17 02:02:21;;;;;;;6.18;2.47;;;17.60;99.90;;;;;;6134119;23;20482;-86
2023/08/17 02:04:47;;;;;;;8.05;2.45;;;17.60;99.90;;;;;;6158420;23;20011;-86
2023/08/17 02:07:12;;;;;;;8.32;2.60;;;17.60;99.90;;;;;;6158354;23;20056;-86
2023/08/17 02:09:38;;;;;;;10.88;1.88;;;17.60;99.90;;;;;;6133767;23;20013;-86
2023/08/17 02:12:04;;;;;;;6.85;1.75;;;17.50;99.90;;;;;;6158499;23;20096;-86
2023/08/17 02:14:29;;;;;;;7.72;2.13;;;17.50;99.90;;;;;;6158306;23;20020;-86
2023/08/17 02:16:55;;;;;;;10.13;2.35;;;17.50;99.90;;;;;;6133801;23;20029;-86
2023/08/17 02:19:21;;;;;;;6.78;2.42;;;17.50;99.90;;;;;;6133897;23;20013;-86
2023/08/17 02:21:46;;;;;;;5.25;1.48;;;17.50;99.90;;;;;;6184931;23;20012;-86
2023/08/17 02:24:12;;;;;;;8.30;2.53;;;17.40;99.90;;;;;;6133451;23;20092;-86
2023/08/17 02:26:38;;;;;;;8.70;2.35;;;17.40;99.90;;;;;;6157946;23;20017;-86
2023/08/17 02:29:04;;;;;;;8.02;1.92;;;17.50;99.90;;;;;;6157897;23;20013;-86
2023/08/17 02:31:29;;;;;;;8.32;2.60;;;17.40;99.90;;;;;;6158230;23;20354;-86
2023/08/17 02:34:00;;;;;;;8.00;2.55;;;17.40;99.90;;;;;;6158069;23;20019;-86
2023/08/17 02:36:28;;;;;;;6.00;1.75;;;17.40;99.90;;;;;;6158113;23;20071;-86
2023/08/17 02:38:53;;;;;;;8.93;2.70;;;17.40;99.90;;;;;;6158052;23;20013;-86
2023/08/17 02:41:19;;;;;;;7.45;2.45;;;17.40;99.90;;;;;;6158323;23;20111;-86
2023/08/17 02:43:44;;;;;;;6.53;1.65;;;17.40;99.90;;;;;;6158129;23;20009;-86
2023/08/17 02:46:10;;;;;;;7.38;2.45;;;17.40;99.90;;;;;;6158187;23;20009;-86
2023/08/17 02:48:36;;;;;;;7.85;2.08;;;17.40;99.90;;;;;;6133161;23;20067;-86
2023/08/17 02:51:01;;;;;;;9.02;2.58;;;17.40;99.90;;;;;;6133758;23;20017;-86
2023/08/17 02:53:27;;;;;;;8.98;2.45;;;17.40;99.90;;;;;;6157998;23;20422;-86
2023/08/17 02:55:52;;;;;;;7.70;2.20;;;17.50;99.90;;;;;;6158175;23;20017;-86
2023/08/17 02:58:19;;;;;;;8.40;1.92;;;17.50;99.90;;;;;;6157897;23;20017;-86
2023/08/17 03:00:44;;;;;;;9.18;2.42;;;17.40;99.90;;;;;;6157937;23;20013;-86
2023/08/17 03:03:10;;;;;;;9.50;2.70;;;17.40;99.90;;;;;;6158143;23;20009;-87
2023/08/17 03:05:35;;;;;;;8.98;2.42;;;17.40;99.90;;;;;;6132955;23;20009;-85
2023/08/17 03:08:01;;;;;;;7.90;2.45;;;17.50;99.90;;;;;;6157331;23;20009;-86
2023/08/17 03:10:27;;;;;;;7.50;1.88;;;17.40;99.90;;;;;;6158145;23;20013;-86
2023/08/17 03:12:52;;;;;;;7.70;2.45;;;17.40;99.90;;;;;;6157955;23;20017;-86
2023/08/17 03:15:18;;;;;;;9.15;3.00;;;17.40;99.90;;;;;;6157925;23;20017;-86
2023/08/17 03:17:43;;;;;;;9.35;2.60;;;17.40;99.90;;;;;;6133309;23;20036;-86
2023/08/17 03:20:09;;;;;;;11.13;3.20;;;17.40;99.90;;;;;;6158115;23;20020;-86
2023/08/17 03:22:35;;;;;;;7.10;2.03;;;17.40;99.90;;;;;;6133317;23;20013;-86
2023/08/17 03:25:02;;;;;;;7.68;2.53;;;17.40;99.90;;;;;;6133301;23;20052;-86
2023/08/17 03:27:28;;;;;;;6.45;2.65;;;17.40;99.90;;;;;;6133310;23;20021;-86
2023/08/17 03:29:54;;;;;;;8.20;2.85;;;17.40;99.90;;;;;;6157725;23;20607;-86
2023/08/17 03:32:19;;;;;;;6.50;1.92;;;17.40;99.90;;;;;;6157932;23;20099;-86
2023/08/17 03:34:45;;;;;;;8.57;2.55;;;17.40;99.90;;;;;;6157886;23;20009;-86
2023/08/17 03:37:11;;;;;;;6.65;2.08;;;17.40;99.90;;;;;;6133056;23;20013;-86
2023/08/17 03:39:37;;;;;;;6.75;2.40;;;17.40;99.90;;;;;;6157811;23;20013;-86
2023/08/17 03:42:03;;;;;;;8.77;2.65;;;17.40;99.90;;;;;;6133423;23;20017;-86
2023/08/17 03:44:28;;;;;;;9.20;2.72;;;17.40;99.90;;;;;;6133708;23;20020;-86
2023/08/17 03:46:54;;;;;;;8.15;2.67;;;17.40;99.90;;;;;;6157904;23;20013;-86
2023/08/17 03:49:19;;;;;;;4.63;1.65;;;17.40;99.90;;;;;;6157672;23;20382;-86
2023/08/17 03:51:45;;;;;;;8.25;2.55;;;17.30;99.90;;;;;;6157797;23;20355;-86
2023/08/17 03:54:12;;;;;;;7.35;2.83;;;17.30;99.90;;;;;;6133493;23;20454;-86
2023/08/17 03:56:38;;;;;;;10.73;3.20;;;17.30;99.90;;;;;;6158033;23;20017;-86
2023/08/17 03:59:04;;;;;;;10.35;3.05;;;17.40;99.90;;;;;;6157495;23;20063;-86
2023/08/17 04:01:29;;;;;;;8.27;3.03;;;17.40;99.90;;;;;;6157801;23;20049;-86
2023/08/17 04:03:55;;;;;;;8.07;2.00;;;17.40;99.90;;;;;;6157721;23;20013;-86
2023/08/17 04:06:21;;;;;;;11.05;3.83;;;17.30;99.90;;;;;;6157715;23;20354;-86
2023/08/17 04:08:46;;;;;;;8.10;3.35;;;17.30;99.90;;;;;;6132801;23;20328;-86
2023/08/17 04:11:12;;;;;;;8.93;2.83;;;17.40;99.90;;;;;;6157847;23;20024;-86
2023/08/17 04:13:37;;;;;;;11.48;3.83;;;17.40;99.90;;;;;;6135139;23;20485;-86
2023/08/17 04:16:03;;;;;;;8.77;2.83;;;17.40;99.90;;;;;;6185950;23;20017;-86
2023/08/17 04:18:29;;;;;;;9.65;3.50;;;17.30;99.90;;;;;;6134691;23;20516;-86
2023/08/17 04:20:54;;;;;;;9.95;3.90;;;17.30;99.90;;;;;;6159760;23;20019;-86
2023/08/17 04:23:20;;;;;;;10.93;3.58;;;17.40;99.90;;;;;;6134956;23;20013;-86
2023/08/17 04:25:47;;;;;;;11.95;4.30;;;17.40;99.90;;;;;;6159819;23;20045;-86
2023/08/17 04:28:12;;;;;;;10.98;4.32;;;17.40;99.90;;;;;;6159245;23;20005;-86
2023/08/17 04:30:38;;;;;;;10.25;2.65;;;17.40;99.90;;;;;;6159374;23;20044;-86
2023/08/17 04:33:04;;;;;;;8.15;3.20;;;17.30;99.90;;;;;;6159049;23;20327;-86
2023/08/17 04:35:30;;;;;;;11.98;3.20;;;17.30;99.90;;;;;;6157931;23;20013;-86
2023/08/17 04:37:56;;;;;;;10.65;3.78;;;17.30;99.90;;;;;;6158432;23;20023;-86
2023/08/17 04:40:21;;;;;;;11.40;4.07;;;17.40;99.90;;;;;;6134567;23;20017;-86
2023/08/17 04:42:47;;;;;;;8.85;3.97;;;17.40;99.90;;;;;;6159280;23;20358;-86
2023/08/17 04:45:13;;;;;;;9.95;3.60;;;17.40;99.90;;;;;;6134633;23;20017;-86
2023/08/17 04:47:39;;;;;;;9.93;3.80;;;17.40;99.90;;;;;;6158406;23;20040;-86
2023/08/17 04:50:06;;;;;;;9.93;3.42;;;17.40;99.90;;;;;;6156692;23;20366;-86
2023/08/17 04:52:31;;;;;;;13.85;3.63;;;17.40;99.90;;;;;;6154774;23;20020;-86
2023/08/17 04:54:57;;;;;;;8.05;2.70;;;17.40;99.90;;;;;;6157786;23;20640;-86
2023/08/17 04:57:22;;;;;;;7.18;2.15;;;17.40;99.90;;;;;;6157014;23;20021;-86
2023/08/17 04:59:48;;;;;;;9.80;3.15;;;17.40;99.90;;;;;;6132869;23;20021;-86
2023/08/17 05:02:14;;;;;;;8.43;3.03;;;17.40;99.90;;;;;;6132655;23;20024;-86
2023/08/17 05:04:39;;;;;;;10.95;3.38;;;17.40;99.90;;;;;;6132613;23;20040;-86
2023/08/17 05:07:05;;;;;;;8.63;3.10;;;17.40;99.90;;;;;;6157586;23;20083;-86
2023/08/17 05:09:31;;;;;;;7.95;3.15;;;17.40;99.90;;;;;;6157174;23;20020;-86
2023/08/17 05:11:57;;;;;;;9.40;2.92;;;17.40;99.90;;;;;;6157981;23;20013;-86
2023/08/17 05:14:22;;;;;;;10.35;3.35;;;17.40;99.90;;;;;;6158093;23;20040;-86
2023/08/17 05:16:48;;;;;;;8.95;2.60;;;17.50;99.90;;;;;;6157646;23;20028;-86
2023/08/17 05:19:13;;;;;;;6.05;1.90;;;17.50;99.90;;;;;;6157222;23;20347;-86
2023/08/17 05:21:39;;;;;;;9.48;3.00;;;17.40;99.90;;;;;;6157437;23;20394;-86
2023/08/17 05:24:05;;;;;;;6.47;1.98;;;17.40;99.90;;;;;;6133013;23;20009;-85
2023/08/17 05:26:32;;;;;;;11.23;2.75;;;17.40;99.90;;;;;;6132853;23;20354;-86
2023/08/17 05:28:57;;;;;;;7.93;2.90;;;17.40;99.90;;;;;;6132756;23;20065;-86
2023/08/17 05:31:23;;;;;;;7.20;1.85;;;17.50;99.90;;;;;;6132937;23;20048;-86
2023/08/17 05:33:48;;;;;;;9.63;3.03;;;17.40;99.90;;;;;;6133539;23;20017;-87
2023/08/17 05:36:14;;;;;;;7.88;2.50;;;17.40;99.90;;;;;;6157770;23;20340;-86
2023/08/17 05:38:40;;;;;;;9.95;3.05;;;17.50;99.90;;;;;;6132718;23;20016;-86
2023/08/17 05:41:05;;;;;;;8.65;2.60;;;17.50;99.90;;;;;;6157059;23;20017;-86
2023/08/17 05:43:31;;;;;;;9.50;2.85;;;17.50;99.90;;;;;;6158125;23;20462;-86
2023/08/17 05:46:00;;;;;;;10.18;3.03;;;17.50;99.90;;;;;;6157813;23;20009;-87
2023/08/17 05:48:25;;;;;;;8.93;2.22;;;17.60;99.90;;;;;;6157333;23;20056;-86
2023/08/17 05:50:51;;;;;;;12.20;3.08;;;17.50;99.90;;;;;;6157496;23;20343;-86
2023/08/17 05:53:17;;;;;;;9.98;3.17;;;17.50;99.90;;;;;;6147319;23;20064;-82
2023/08/17 05:55:42;;;;;;;6.53;1.95;;;17.60;99.90;;;;;;6167462;23;20358;-87
2023/08/17 05:58:08;;;;;;;9.35;2.90;;;17.60;99.90;;;;;;6159236;23;20020;-87
2023/08/17 06:00:35;;;;;;;9.63;3.00;;;17.60;99.90;;;;;;6159619;23;20013;-87
2023/08/17 06:03:03;;;;;;;8.20;2.50;;;17.60;99.90;;;;;;6159125;23;20017;-86
2023/08/17 06:05:29;;;;;;;7.90;2.63;;;17.60;99.90;;;;;;6134765;23;20048;-86
2023/08/17 06:07:58;;;;;;;10.40;2.72;;;17.60;99.90;;;;;;6158185;23;20009;-87
2023/08/17 06:10:27;;;;;;;9.10;3.03;;;17.60;99.90;;;;;;6158104;23;20084;-86
2023/08/17 06:12:57;;;;;;;8.80;2.80;;;17.60;99.90;;;;;;6133424;23;20021;-85
2023/08/17 06:15:23;;;;;;;7.45;2.25;;;17.70;99.90;;;;;;6157255;23;20124;-86
2023/08/17 06:17:52;;;;;;;8.90;3.03;;;17.60;99.90;;;;;;6156634;23;20016;-86
2023/08/17 06:20:18;;;;;;;8.90;2.75;;;17.70;99.90;;;;;;6157295;23;20497;-86
2023/08/17 06:22:44;;;;;;;10.48;2.38;;;17.70;99.90;;;;;;6156801;23;20017;-86
2023/08/17 06:25:09;;;;;;;8.68;2.58;;;17.70;99.90;;;;;;6157833;23;20009;-86
2023/08/17 06:27:35;;;;;;;8.23;2.78;;;17.70;99.90;;;;;;6130905;23;20812;-86
2023/08/17 06:30:05;;;;;;;9.15;2.67;;;17.70;99.90;;;;;;6156198;23;20093;-86
2023/08/17 06:32:31;;;;;;;7.35;2.50;;;17.70;99.90;;;;;;6132477;23;20012;-86
2023/08/17 06:34:57;;;;;;;9.43;2.85;;;17.80;99.90;;;;;;6132295;23;20051;-86
2023/08/17 06:37:22;;;;;;;8.23;2.70;;;17.80;99.90;;;;;;6156571;23;20009;-87
2023/08/17 06:39:48;;;;;;;5.63;1.70;;;17.80;99.90;;;;;;6157138;23;20016;-86
2023/08/17 06:42:14;;;;;;;9.00;2.50;;;17.80;99.90;;;;;;6132539;23;20395;-86
2023/08/17 06:44:39;;;;;;;9.07;2.63;;;17.80;99.90;;;;;;6157453;23;20005;-86
2023/08/17 06:47:05;;;;;;;9.77;2.83;;;17.80;99.90;;;;;;6156730;23;20485;-86
2023/08/17 06:49:31;;;;;;;14.00;2.60;;;17.90;99.90;;;;;;6156200;23;20088;-86
2023/08/17 06:51:57;;;;;;;8.13;2.67;;;17.90;99.90;;;;;;6157262;23;20017;-86
2023/08/17 06:54:22;;;;;;;7.68;1.92;;;17.90;99.90;;;;;;6155868;23;20013;-86
2023/08/17 06:56:48;;;;;;;9.93;2.78;;;17.90;99.90;;;;;;6155788;23;20225;-86
2023/08/17 06:59:13;;;;;;;8.15;2.38;;;17.90;99.90;;;;;;6156728;23;20478;-87
2023/08/17 07:01:39;;;;;;;7.82;2.67;;;17.90;99.90;;;;;;6132246;23;20597;-86
2023/08/17 07:04:05;;;;;;;7.85;2.50;;;17.90;99.90;;;;;;6132779;23;20013;-86
2023/08/17 07:06:31;;;;;;;8.60;2.85;;;18.00;99.90;;;;;;6132564;23;20009;-86
2023/08/17 07:08:56;;;;;;;8.20;2.40;;;18.00;99.90;;;;;;6156854;23;20447;-86
2023/08/17 07:11:22;;;;;;;8.57;1.83;;;18.00;99.90;;;;;;6132529;23;20390;-86
2023/08/17 07:13:48;;;;;;;8.60;2.50;;;18.00;99.90;;;;;;6157169;23;20032;-86
2023/08/17 07:16:13;;;;;;;8.30;2.30;;;18.00;99.90;;;;;;6156727;23;20013;-86
2023/08/17 07:18:39;;;;;;;7.32;2.25;;;18.00;99.90;;;;;;6156368;23;20017;-86
2023/08/17 07:21:05;;;;;;;8.02;2.40;;;18.00;99.90;;;;;;6132745;23;20017;-86
2023/08/17 07:23:30;;;;;;;6.78;2.33;;;18.10;99.90;;;;;;6157242;23;20517;-86
2023/08/17 07:25:56;;;;;;;6.35;2.28;;;18.10;99.90;;;;;;6157113;23;20479;-86
2023/08/17 07:28:21;;;;;;;10.60;2.45;;;18.10;99.90;;;;;;6156732;23;20013;-86
2023/08/17 07:30:47;;;;;;;8.45;2.28;;;18.10;99.90;;;;;;6156361;23;20088;-86
2023/08/17 07:33:12;;;;;;;9.00;2.60;;;18.10;99.90;;;;;;6156040;23;20016;-86
2023/08/17 07:35:38;;;;;;;5.82;1.55;;;18.20;99.90;;;;;;6156682;23;20029;-86
2023/08/17 07:38:04;;;;;;;8.45;2.53;;;18.20;99.90;;;;;;6156635;23;20075;-86
2023/08/17 07:40:29;;;;;;;8.90;2.47;;;18.20;99.90;;;;;;6132346;23;20013;-86
2023/08/17 07:42:55;;;;;;;8.48;2.17;;;18.30;99.90;;;;;;6156741;23;20092;-86
2023/08/17 07:45:21;;;;;;;8.15;2.35;;;18.20;99.90;;;;;;6157363;23;20382;-86
2023/08/17 07:47:46;;;;;;;8.38;2.33;;;18.30;99.90;;;;;;6158017;23;20013;-87
2023/08/17 07:50:12;;;;;;;7.18;1.92;;;18.30;99.90;;;;;;6134278;23;20418;-86
2023/08/17 07:52:37;;;;;;;7.55;2.25;;;18.30;99.90;;;;;;6134510;23;20017;-86
2023/08/17 07:55:03;;;;;;;8.07;2.17;;;18.30;99.90;;;;;;6134073;23;20051;-86
2023/08/17 07:57:29;;;;;;;7.70;2.20;;;18.40;99.90;;;;;;6158506;23;20017;-87
2023/08/17 07:59:54;;;;;;;9.10;2.53;;;18.40;99.90;;;;;;6158668;23;20013;-87
2023/08/17 08:02:20;;;;;;;7.57;2.20;;;18.40;99.90;;;;;;6134080;23;20607;-87
2023/08/17 08:04:45;;;;;;;7.60;2.28;;;18.50;99.90;;;;;;6159044;23;20013;-87
2023/08/17 08:07:11;;;;;;;7.10;2.03;;;18.50;99.90;;;;;;6159089;23;20065;-87
2023/08/17 08:09:37;;;;;;;7.50;2.40;;;18.50;99.90;;;;;;6158372;23;20009;-87
2023/08/17 08:12:03;;;;;;;7.13;2.20;;;18.50;99.90;;;;;;6134023;23;20013;-87
2023/08/17 08:14:29;;;;;;;10.02;2.35;;;18.60;99.90;;;;;;6134110;23;20016;-86
2023/08/17 08:16:55;;;;;;;6.60;1.90;;;18.60;99.90;;;;;;6158375;23;20036;-86
2023/08/17 08:19:20;;;;;;;10.52;2.10;;;18.60;99.90;;;;;;6133433;23;20100;-87
2023/08/17 08:21:46;;;;;;;6.13;1.80;;;18.60;99.90;;;;;;6158277;23;20016;-87
2023/08/17 08:24:12;;;;;;;7.82;2.05;;;18.60;99.90;;;;;;6158292;23;20012;-87
2023/08/17 08:26:37;;;;;;;7.07;2.13;;;18.60;99.90;;;;;;6134836;23;20020;-87
2023/08/17 08:29:03;;;;;;;6.38;1.98;;;18.60;99.90;;;;;;6133792;23;20036;-87
2023/08/17 08:31:28;;;;;;;9.23;2.10;;;18.60;99.90;;;;;;6157618;23;20060;-86
2023/08/17 08:33:54;;;;;;;8.80;2.30;;;18.70;99.90;;;;;;6158352;23;20756;-87
2023/08/17 08:36:20;;;;;;;7.88;2.25;;;18.70;99.90;;;;;;6158224;23;20087;-87
2023/08/17 08:38:46;;;;;;;8.02;2.50;;;18.70;99.90;;;;;;6158380;23;20024;-87
2023/08/17 08:41:11;;;;;;;7.10;2.20;;;18.70;99.90;;;;;;6134200;23;20462;-86
2023/08/17 08:43:38;;;;;;;7.45;2.25;;;18.70;99.90;;;;;;6157325;23;20020;-87
2023/08/17 08:46:04;;;;;;;8.80;2.42;;;18.70;99.90;;;;;;6158566;23;20017;-87
2023/08/17 08:48:34;;;;;;;8.23;1.95;;;18.80;99.90;;;;;;6157737;23;20117;-87
2023/08/17 08:51:07;;;;;;;9.05;2.30;;;18.80;99.90;;;;;;6157622;23;20052;-87
2023/08/17 08:53:45;;;;;;;6.72;1.75;;;18.80;99.90;;;;;;6157570;23;20009;-87
2023/08/17 08:56:12;;;;;;;7.53;2.33;;;18.90;99.90;;;;;;6157497;23;20013;-87
2023/08/17 08:58:39;;;;;;;9.23;2.30;;;19.00;99.90;;;;;;6132637;23;20013;-87
2023/08/17 09:01:07;;;;;;;9.18;2.92;;;19.00;99.90;;;;;;6132903;23;20005;-87
2023/08/17 09:03:33;;;;;;;6.40;1.88;;;19.00;99.90;;;;;;6157768;23;20013;-87
2023/08/17 09:05:59;;;;;;;7.72;1.70;;;19.00;99.90;;;;;;6133297;23;20052;-87
2023/08/17 09:08:29;;;;;;;6.38;2.00;;;19.00;99.90;;;;;;6157977;23;20009;-87
2023/08/17 09:10:55;;;;;;;7.40;1.80;;;19.10;99.90;;;;;;6157995;23;20009;-87
2023/08/17 09:13:20;;;;;;;7.90;2.25;;;19.10;99.90;;;;;;6157424;23;20009;-87
2023/08/17 09:15:46;;;;;;;8.10;1.90;;;19.10;99.90;;;;;;6157557;23;20017;-87
2023/08/17 09:18:12;;;;;;;6.25;1.90;;;19.10;99.90;;;;;;6132952;23;20013;-87
2023/08/17 09:20:46;;;;;;;7.95;2.20;;;19.20;99.90;;;;;;6157660;23;20009;-88
2023/08/17 09:23:20;;;;;;;9.13;1.88;;;19.20;99.90;;;;;;6157885;23;20017;-87
2023/08/17 09:25:47;;;;;;;7.35;2.47;;;19.20;99.90;;;;;;6157372;23;20440;-87
2023/08/17 09:28:14;;;;;;;6.57;1.92;;;19.20;99.90;;;;;;6157654;23;20067;-87
2023/08/17 09:30:54;;;;;;;5.35;1.67;;;19.20;99.90;;;;;;6184079;23;20016;-87
2023/08/17 09:33:24;;;;;;;7.35;2.00;;;19.30;99.90;;;;;;6132122;23;20289;-87
2023/08/17 09:35:52;;;;;;;11.73;2.50;;;19.20;99.90;;;;;;6157297;23;20009;-87
2023/08/17 09:38:18;;;;;;;6.22;1.98;;;19.20;99.90;;;;;;6132592;23;20016;-87
2023/08/17 09:40:44;;;;;;;8.27;2.40;;;19.30;99.90;;;;;;6157046;23;20044;-87
2023/08/17 09:43:10;;;;;;;8.80;2.50;;;19.30;99.90;;;;;;6157090;23;20017;-87
2023/08/17 09:45:39;;;;;;;8.85;2.60;;;19.30;99.90;;;;;;6133177;23;20012;-87
2023/08/17 09:48:08;;;;;;;8.05;2.47;;;19.30;99.90;;;;;;6157320;23;20009;-87
2023/08/17 09:50:34;;;;;;;7.78;2.10;;;19.40;99.90;;;;;;6156870;23;20071;-86
2023/08/17 09:52:59;;;;;;;6.00;1.98;;;19.30;99.90;;;;;;6157024;23;20095;-86
2023/08/17 09:55:25;;;;;;;8.40;2.35;;;19.30;99.90;;;;;;6132962;23;20041;-86
2023/08/17 09:57:52;;;;;;;6.35;2.00;;;19.30;99.90;;;;;;6157377;23;20017;-86
2023/08/17 10:00:19;;;;;;;8.55;2.55;;;19.40;99.90;;;;;;6157975;23;20019;-86
2023/08/17 10:02:46;;;;;;;7.65;2.42;;;19.40;99.90;;;;;;6157317;23;20020;-85
2023/08/17 10:05:14;;;;;;;7.05;2.33;;;19.40;99.90;;;;;;6157506;23;20013;-86
2023/08/17 10:07:45;;;;;;;7.10;2.28;;;19.40;99.90;;;;;;6132572;23;20017;-86
2023/08/17 10:10:12;;;;;;;8.98;2.50;;;19.50;99.90;;;;;;6156983;23;20008;-86
2023/08/17 10:12:46;;;;;;;9.52;2.60;;;19.50;99.90;;;;;;6156917;23;20009;-86
2023/08/17 10:15:15;;;;;;;7.40;2.15;;;19.60;99.90;;;;;;6133063;23;20009;-86
2023/08/17 10:18:15;;;;;;;7.03;2.40;;;19.70;99.90;;;;;;6132970;23;20407;-86
2023/08/17 10:20:45;;;;;;;7.18;2.17;;;19.80;99.90;;;;;;6157331;23;20013;-86
2023/08/17 10:23:16;;;;;;;7.40;2.33;;;19.80;99.90;;;;;;6132306;23;20344;-86
2023/08/17 10:25:43;;;;;;;6.63;2.30;;;19.90;99.90;;;;;;6157845;23;20342;-86
2023/08/17 10:28:12;;;;;;;7.80;2.35;;;19.90;99.90;;;;;;6154413;23;20639;-86
2023/08/17 10:30:38;;;;;;;7.40;2.65;;;20.00;99.90;;;;;;6157118;23;20036;-86
2023/08/17 10:33:05;;;;;;;6.80;2.28;;;20.00;99.90;;;;;;6157127;23;20454;-86
2023/08/17 10:35:35;;;;;;;8.90;2.20;;;20.10;99.90;;;;;;6157415;23;20017;-86
2023/08/17 10:38:03;;;;;;;8.00;2.20;;;20.20;99.90;;;;;;6157021;23;20013;-86
2023/08/17 10:40:34;;;;;;;7.20;2.40;;;20.20;99.90;;;;;;6156456;23;20013;-86
2023/08/17 10:43:00;;;;;;;7.22;2.40;;;20.20;99.90;;;;;;6132416;23;20021;-86
2023/08/17 10:45:27;;;;;;;7.32;2.45;;;20.30;99.90;;;;;;6157772;23;20009;-86
2023/08/17 10:48:09;;;;;;;6.97;2.45;;;20.30;99.90;;;;;;6157254;23;20045;-86
2023/08/17 10:50:36;;;;;;;7.90;2.70;;;20.30;99.90;;;;;;6132458;23;20020;-86
2023/08/17 10:53:10;;;;;;;8.75;2.80;;;20.30;99.90;;;;;;6132239;23;20088;-86
2023/08/17 10:55:46;;;;;;;7.00;2.40;;;20.30;99.90;;;;;;6156413;23;20067;-86
2023/08/17 10:58:12;;;;;;;8.70;2.70;;;20.40;99.90;;;;;;6156544;23;20020;-86
2023/08/17 11:00:38;;;;;;;7.00;2.30;;;20.50;99.90;;;;;;6157143;23;20009;-86
2023/08/17 11:03:06;;;;;;;7.13;2.78;;;20.60;99.90;;;;;;6157224;23;20032;-86
2023/08/17 11:05:38;;;;;;;7.10;2.40;;;20.80;99.90;;;;;;6133130;23;20005;-86
2023/08/17 11:08:09;;;;;;;9.50;2.85;;;20.90;99.90;;;;;;6183834;23;20079;-87
2023/08/17 11:10:35;;;;;;;8.23;3.08;;;20.90;99.90;;;;;;6132844;23;20013;-87
2023/08/17 11:13:01;;;;;;;7.30;2.70;;;20.90;99.90;;;;;;6156487;23;20497;-86
2023/08/17 11:15:48;;;;;;;7.45;2.85;;;21.00;99.90;;;;;;6131335;23;20009;-87
2023/08/17 11:18:13;;;;;;;8.80;2.90;;;21.00;99.90;;;;;;6156963;23;20064;-87
2023/08/17 11:20:41;;;;;;;9.05;3.15;;;20.90;99.90;;;;;;6133241;23;20024;-87
2023/08/17 11:23:08;;;;;;;8.23;3.30;;;20.90;99.90;;;;;;6158925;23;20009;-87
2023/08/17 11:25:34;;;;;;;7.78;3.10;;;21.00;99.90;;;;;;6134668;23;20088;-87
2023/08/17 11:28:03;;;;;;;8.15;2.90;;;21.00;99.90;;;;;;6159895;23;20055;-87
2023/08/17 11:30:29;;;;;;;8.60;3.28;;;21.00;99.90;;;;;;6159672;23;20009;-87
2023/08/17 11:32:56;;;;;;;8.90;3.40;;;21.00;99.90;;;;;;6134043;23;20013;-87
2023/08/17 11:35:22;;;;;;;7.70;3.33;;;21.10;99.90;;;;;;6134881;23;20020;-87
2023/08/17 11:37:49;;;;;;;7.78;3.28;;;21.10;99.90;;;;;;6134321;23;20020;-86
2023/08/17 11:40:15;;;;;;;8.63;3.30;;;21.10;99.90;;;;;;6159627;23;20058;-86
2023/08/17 11:42:42;;;;;;;8.20;3.25;;;21.10;99.90;;;;;;6134411;23;20036;-86
2023/08/17 11:45:11;;;;;;;7.75;3.10;;;21.10;99.90;;;;;;6134705;23;20085;-86
2023/08/17 11:47:40;;;;;;;7.68;2.97;;;21.10;99.90;;;;;;6159184;23;20032;-86
2023/08/17 11:50:08;;;;;;;8.02;3.20;;;21.10;99.90;;;;;;6134183;23;20013;-86
2023/08/17 11:52:36;;;;;;;8.57;3.45;;;21.10;99.90;;;;;;6134250;23;20350;-87
2023/08/17 11:55:02;;;;;;;7.85;3.55;;;21.10;99.90;;;;;;6133819;23;20017;-87
2023/08/17 11:57:29;;;;;;;7.70;3.30;;;21.10;99.90;;;;;;6133878;23;20077;-87
2023/08/17 11:59:56;;;;;;;9.32;3.92;;;21.10;99.90;;;;;;6134637;23;20067;-86
2023/08/17 12:02:26;;;;;;;6.65;3.30;;;21.10;99.90;;;;;;6158934;23;20027;-86
2023/08/17 12:04:53;;;;;;;7.65;3.13;;;21.10;99.90;;;;;;6159231;23;20013;-87
2023/08/17 12:07:19;;;;;;;8.38;3.50;;;21.10;99.90;;;;;;6134641;23;20016;-87
2023/08/17 12:09:48;;;;;;;7.72;3.67;;;21.10;99.90;;;;;;6133971;23;20382;-87
2023/08/17 12:12:18;;;;;;;8.77;3.60;;;21.20;99.90;;;;;;6133946;23;20028;-87
2023/08/17 12:14:46;;;;;;;8.05;3.15;;;21.10;99.90;;;;;;6158223;23;20068;-87
2023/08/17 12:17:19;;;;;;;7.80;3.35;;;21.20;99.90;;;;;;6133950;23;20055;-87
2023/08/17 12:19:49;;;;;;;10.23;5.25;;;21.20;99.90;;;;;;6133899;23;20095;-87
2023/08/17 12:22:14;;;;;;;8.35;3.75;;;21.20;99.90;;;;;;6157917;23;20092;-86
2023/08/17 12:24:40;;;;;;;8.65;3.50;;;21.20;99.90;;;;;;6133396;23;20410;-87
2023/08/17 12:27:06;;;;;;;8.23;3.50;;;21.20;99.90;;;;;;6184573;23;20324;-87
2023/08/17 12:29:32;;;;;;;7.05;3.70;;;21.30;99.90;;;;;;6133924;23;20009;-87
2023/08/17 12:31:59;;;;;;;7.45;3.53;;;21.30;99.90;;;;;;6133908;23;20052;-87
2023/08/17 12:34:25;;;;;;;7.55;3.30;;;21.30;99.90;;;;;;6158871;23;20017;-87
2023/08/17 12:36:51;;;;;;;8.18;3.60;;;21.40;99.90;;;;;;6158052;23;20073;-87
2023/08/17 12:39:16;;;;;;;8.35;3.95;;;21.40;99.90;;;;;;6158090;23;20024;-87
2023/08/17 12:41:42;;;;;;;8.35;3.50;;;21.50;99.90;;;;;;6158567;23;20063;-87
2023/08/17 12:44:14;;;;;;;7.20;3.20;;;21.70;99.90;;;;;;6158827;23;20086;-87